sensor_id;sensor_type;location;lat;lon;timestamp;P1;durP1;ratioP1;P2;durP2;ratioP2
13933;SDS011;7039;52.168;9.866;2023-04-01T00:00:18;4.77;;;1.10;;
13933;SDS011;7039;52.168;9.866;2023-04-01T03:39:42;2.50;;;0.80;;
13933;SDS011;7039;52.168;9.866;2023-04-01T03:42:09;1.87;;;1.27;;
13933;SDS011;7039;52.168;9.866;2023-04-01T03:44:35;2.10;;;0.70;;
13933;SDS011;7039;52.168;9.866;2023-04-01T03:47:02;1.70;;;0.60;;
13933;SDS011;7039;52.168;9.866;2023-04-01T03:49:29;2.57;;;0.60;;
13933;SDS011;7039;52.168;9.866;2023-04-01T03:51:57;1.17;;;0.60;;
13933;SDS011;7039;52.168;9.866;2023-04-01T03:54:23;1.73;;;0.60;;
13933;SDS011;7039;52.168;9.866;2023-04-01T03:56:51;0.70;;;0.50;;
13933;SDS011;7039;52.168;9.866;2023-04-01T03:59:18;0.70;;;0.40;;
13933;SDS011;7039;52.168;9.866;2023-04-01T04:01:45;2.30;;;0.70;;
13933;SDS011;7039;52.168;9.866;2023-04-01T04:04:12;3.07;;;0.60;;
13933;SDS011;7039;52.168;9.866;2023-04-01T04:06:39;2.27;;;0.60;;
13933;SDS011;7039;52.168;9.866;2023-04-01T04:09:06;1.60;;;0.70;;
13933;SDS011;7039;52.168;9.866;2023-04-01T04:11:32;1.37;;;0.57;;
13933;SDS011;7039;52.168;9.866;2023-04-01T04:14:00;1.30;;;0.70;;
13933;SDS011;7039;52.168;9.866;2023-04-01T04:16:27;0.87;;;0.47;;
13933;SDS011;7039;52.168;9.866;2023-04-01T04:18:54;1.63;;;0.63;;
13933;SDS011;7039;52.168;9.866;2023-04-01T04:21:20;2.93;;;0.80;;
13933;SDS011;7039;52.168;9.866;2023-04-01T04:23:47;1.80;;;1.03;;
13933;SDS011;7039;52.168;9.866;2023-04-01T04:26:13;5.63;;;0.73;;
13933;SDS011;7039;52.168;9.866;2023-04-01T04:28:41;2.33;;;0.90;;
13933;SDS011;7039;52.168;9.866;2023-04-01T04:31:08;4.47;;;0.90;;
13933;SDS011;7039;52.168;9.866;2023-04-01T04:33:35;3.50;;;0.73;;
13933;SDS011;7039;52.168;9.866;2023-04-01T04:36:02;2.13;;;0.73;;
13933;SDS011;7039;52.168;9.866;2023-04-01T04:38:30;2.57;;;1.37;;
13933;SDS011;7039;52.168;9.866;2023-04-01T04:40:56;2.50;;;1.00;;
13933;SDS011;7039;52.168;9.866;2023-04-01T04:43:23;2.87;;;0.80;;
13933;SDS011;7039;52.168;9.866;2023-04-01T04:45:49;1.77;;;1.00;;
13933;SDS011;7039;52.168;9.866;2023-04-01T04:48:18;2.53;;;0.83;;
13933;SDS011;7039;52.168;9.866;2023-04-01T04:50:45;3.50;;;0.90;;
13933;SDS011;7039;52.168;9.866;2023-04-01T04:53:12;2.47;;;0.80;;
13933;SDS011;7039;52.168;9.866;2023-04-01T04:55:42;3.13;;;0.70;;
13933;SDS011;7039;52.168;9.866;2023-04-01T04:58:09;2.57;;;0.77;;
13933;SDS011;7039;52.168;9.866;2023-04-01T05:00:36;2.83;;;0.70;;
13933;SDS011;7039;52.168;9.866;2023-04-01T05:03:03;2.77;;;1.20;;
13933;SDS011;7039;52.168;9.866;2023-04-01T05:05:30;1.63;;;0.70;;
13933;SDS011;7039;52.168;9.866;2023-04-01T05:07:57;4.40;;;0.70;;
13933;SDS011;7039;52.168;9.866;2023-04-01T05:10:23;1.77;;;0.80;;
13933;SDS011;7039;52.168;9.866;2023-04-01T05:12:50;2.20;;;0.87;;
13933;SDS011;7039;52.168;9.866;2023-04-01T05:15:16;3.30;;;0.73;;
13933;SDS011;7039;52.168;9.866;2023-04-01T05:17:43;2.43;;;0.73;;
13933;SDS011;7039;52.168;9.866;2023-04-01T05:20:11;1.43;;;0.70;;
13933;SDS011;7039;52.168;9.866;2023-04-01T05:22:39;1.40;;;0.73;;
13933;SDS011;7039;52.168;9.866;2023-04-01T05:25:06;3.30;;;0.90;;
13933;SDS011;7039;52.168;9.866;2023-04-01T05:27:33;1.03;;;0.93;;
13933;SDS011;7039;52.168;9.866;2023-04-01T05:30:00;2.17;;;0.97;;
13933;SDS011;7039;52.168;9.866;2023-04-01T05:32:26;0.97;;;0.70;;
13933;SDS011;7039;52.168;9.866;2023-04-01T05:34:53;2.50;;;1.00;;
13933;SDS011;7039;52.168;9.866;2023-04-01T05:37:20;3.57;;;0.90;;
13933;SDS011;7039;52.168;9.866;2023-04-01T05:39:49;3.63;;;1.30;;
13933;SDS011;7039;52.168;9.866;2023-04-01T05:42:15;5.23;;;1.30;;
13933;SDS011;7039;52.168;9.866;2023-04-01T05:44:42;3.07;;;1.30;;
13933;SDS011;7039;52.168;9.866;2023-04-01T05:47:08;8.60;;;5.23;;
13933;SDS011;7039;52.168;9.866;2023-04-01T05:49:35;10.13;;;6.53;;
13933;SDS011;7039;52.168;9.866;2023-04-01T05:52:01;9.77;;;6.67;;
13933;SDS011;7039;52.168;9.866;2023-04-01T05:54:28;6.93;;;4.23;;
13933;SDS011;7039;52.168;9.866;2023-04-01T05:56:56;8.33;;;2.93;;
13933;SDS011;7039;52.168;9.866;2023-04-01T05:59:22;7.63;;;4.57;;
13933;SDS011;7039;52.168;9.866;2023-04-01T06:01:49;8.40;;;4.67;;
13933;SDS011;7039;52.168;9.866;2023-04-01T06:04:16;6.30;;;3.33;;
13933;SDS011;7039;52.168;9.866;2023-04-01T06:06:44;5.73;;;2.77;;
13933;SDS011;7039;52.168;9.866;2023-04-01T06:09:12;5.10;;;3.50;;
13933;SDS011;7039;52.168;9.866;2023-04-01T06:11:43;2.73;;;2.00;;
13933;SDS011;7039;52.168;9.866;2023-04-01T06:14:26;3.90;;;2.23;;
13933;SDS011;7039;52.168;9.866;2023-04-01T06:17:03;3.03;;;1.90;;
13933;SDS011;7039;52.168;9.866;2023-04-01T06:19:44;9.20;;;4.20;;
13933;SDS011;7039;52.168;9.866;2023-04-01T06:22:19;5.47;;;4.00;;
13933;SDS011;7039;52.168;9.866;2023-04-01T06:25:04;7.63;;;4.60;;
13933;SDS011;7039;52.168;9.866;2023-04-01T06:27:51;3.50;;;2.20;;
13933;SDS011;7039;52.168;9.866;2023-04-01T06:30:39;4.00;;;2.13;;
13933;SDS011;7039;52.168;9.866;2023-04-01T06:33:12;5.03;;;2.67;;
13933;SDS011;7039;52.168;9.866;2023-04-01T06:36:01;2.37;;;1.40;;
13933;SDS011;7039;52.168;9.866;2023-04-01T06:38:44;3.60;;;1.30;;
13933;SDS011;7039;52.168;9.866;2023-04-01T06:44:40;3.27;;;1.80;;
13933;SDS011;7039;52.168;9.866;2023-04-01T06:47:21;3.00;;;2.20;;
13933;SDS011;7039;52.168;9.866;2023-04-01T06:49:57;5.73;;;4.70;;
13933;SDS011;7039;52.168;9.866;2023-04-01T06:52:34;10.47;;;7.83;;
13933;SDS011;7039;52.168;9.866;2023-04-01T06:55:15;22.03;;;12.50;;
13933;SDS011;7039;52.168;9.866;2023-04-01T06:57:49;12.63;;;5.83;;
13933;SDS011;7039;52.168;9.866;2023-04-01T07:00:27;6.37;;;4.30;;
13933;SDS011;7039;52.168;9.866;2023-04-01T07:02:59;10.77;;;7.40;;
13933;SDS011;7039;52.168;9.866;2023-04-01T07:05:32;5.07;;;3.47;;
13933;SDS011;7039;52.168;9.866;2023-04-01T07:08:01;11.53;;;3.83;;
13933;SDS011;7039;52.168;9.866;2023-04-01T07:10:32;7.97;;;5.13;;
13933;SDS011;7039;52.168;9.866;2023-04-01T07:13:02;4.80;;;3.00;;
13933;SDS011;7039;52.168;9.866;2023-04-01T07:15:33;5.73;;;3.33;;
13933;SDS011;7039;52.168;9.866;2023-04-01T07:18:05;91.20;;;45.77;;
13933;SDS011;7039;52.168;9.866;2023-04-01T07:20:38;126.83;;;68.30;;
13933;SDS011;7039;52.168;9.866;2023-04-01T07:23:05;40.37;;;27.53;;
13933;SDS011;7039;52.168;9.866;2023-04-01T07:25:38;61.37;;;40.70;;
13933;SDS011;7039;52.168;9.866;2023-04-01T07:28:11;97.83;;;59.07;;
13933;SDS011;7039;52.168;9.866;2023-04-01T07:30:41;61.00;;;36.37;;
13933;SDS011;7039;52.168;9.866;2023-04-01T07:33:19;14.43;;;10.73;;
13933;SDS011;7039;52.168;9.866;2023-04-01T07:35:52;7.17;;;5.43;;
13933;SDS011;7039;52.168;9.866;2023-04-01T07:38:30;2.87;;;1.90;;
13933;SDS011;7039;52.168;9.866;2023-04-01T07:41:07;2.20;;;1.97;;
13933;SDS011;7039;52.168;9.866;2023-04-01T07:43:43;3.37;;;3.00;;
13933;SDS011;7039;52.168;9.866;2023-04-01T07:46:23;4.70;;;3.23;;
13933;SDS011;7039;52.168;9.866;2023-04-01T07:49:14;4.80;;;3.40;;
13933;SDS011;7039;52.168;9.866;2023-04-01T07:51:48;5.40;;;2.37;;
13933;SDS011;7039;52.168;9.866;2023-04-01T07:54:26;2.03;;;1.57;;
13933;SDS011;7039;52.168;9.866;2023-04-01T07:57:00;2.43;;;1.40;;
13933;SDS011;7039;52.168;9.866;2023-04-01T07:59:33;2.77;;;1.40;;
13933;SDS011;7039;52.168;9.866;2023-04-01T08:02:12;3.50;;;1.70;;
13933;SDS011;7039;52.168;9.866;2023-04-01T08:04:55;4.47;;;1.70;;
13933;SDS011;7039;52.168;9.866;2023-04-01T08:07:30;2.63;;;1.70;;
13933;SDS011;7039;52.168;9.866;2023-04-01T08:10:06;2.60;;;0.93;;
13933;SDS011;7039;52.168;9.866;2023-04-01T08:12:41;4.47;;;2.17;;
13933;SDS011;7039;52.168;9.866;2023-04-01T08:15:17;2.63;;;1.20;;
13933;SDS011;7039;52.168;9.866;2023-04-01T08:17:52;3.00;;;0.83;;
13933;SDS011;7039;52.168;9.866;2023-04-01T08:20:30;2.30;;;0.60;;
13933;SDS011;7039;52.168;9.866;2023-04-01T08:23:03;1.23;;;0.60;;
13933;SDS011;7039;52.168;9.866;2023-04-01T08:25:37;1.43;;;0.70;;
13933;SDS011;7039;52.168;9.866;2023-04-01T08:28:09;4.97;;;0.90;;
13933;SDS011;7039;52.168;9.866;2023-04-01T08:30:41;1.33;;;0.70;;
13933;SDS011;7039;52.168;9.866;2023-04-01T08:33:15;49.20;;;24.10;;
13933;SDS011;7039;52.168;9.866;2023-04-01T08:35:48;17.07;;;10.27;;
13933;SDS011;7039;52.168;9.866;2023-04-01T08:38:18;31.70;;;19.33;;
13933;SDS011;7039;52.168;9.866;2023-04-01T08:40:55;8.10;;;6.03;;
13933;SDS011;7039;52.168;9.866;2023-04-01T08:43:32;33.53;;;16.17;;
13933;SDS011;7039;52.168;9.866;2023-04-01T08:46:16;4.97;;;3.03;;
13933;SDS011;7039;52.168;9.866;2023-04-01T08:48:59;1.67;;;1.57;;
13933;SDS011;7039;52.168;9.866;2023-04-01T08:52:03;4.00;;;2.20;;
13933;SDS011;7039;52.168;9.866;2023-04-01T08:54:46;2.77;;;1.73;;
13933;SDS011;7039;52.168;9.866;2023-04-01T08:57:33;3.33;;;1.53;;
13933;SDS011;7039;52.168;9.866;2023-04-01T09:00:13;10.73;;;8.90;;
13933;SDS011;7039;52.168;9.866;2023-04-01T09:02:49;6.13;;;3.30;;
13933;SDS011;7039;52.168;9.866;2023-04-01T09:05:39;5.97;;;4.17;;
13933;SDS011;7039;52.168;9.866;2023-04-01T09:08:33;2.57;;;2.00;;
13933;SDS011;7039;52.168;9.866;2023-04-01T09:11:12;2.30;;;2.10;;
13933;SDS011;7039;52.168;9.866;2023-04-01T09:17:01;2.73;;;1.43;;
13933;SDS011;7039;52.168;9.866;2023-04-01T09:19:46;5.43;;;0.70;;
13933;SDS011;7039;52.168;9.866;2023-04-01T09:22:26;1.73;;;1.10;;
13933;SDS011;7039;52.168;9.866;2023-04-01T09:25:08;5.30;;;1.80;;
13933;SDS011;7039;52.168;9.866;2023-04-01T09:27:49;2.73;;;2.00;;
13933;SDS011;7039;52.168;9.866;2023-04-01T09:30:38;1.60;;;1.20;;
13933;SDS011;7039;52.168;9.866;2023-04-01T09:36:43;4.60;;;1.70;;
13933;SDS011;7039;52.168;9.866;2023-04-01T10:30:38;1.83;;;1.23;;
13933;SDS011;7039;52.168;9.866;2023-04-01T10:36:57;63.47;;;27.77;;
13933;SDS011;7039;52.168;9.866;2023-04-01T11:32:02;1.50;;;0.80;;
13933;SDS011;7039;52.168;9.866;2023-04-01T11:34:59;2.43;;;0.87;;
13933;SDS011;7039;52.168;9.866;2023-04-01T11:41:18;2.70;;;1.50;;
13933;SDS011;7039;52.168;9.866;2023-04-01T12:13:42;1.10;;;0.80;;
13933;SDS011;7039;52.168;9.866;2023-04-01T12:30:54;2.30;;;1.80;;
13933;SDS011;7039;52.168;9.866;2023-04-01T13:46:20;2.50;;;0.83;;
13933;SDS011;7039;52.168;9.866;2023-04-01T13:49:19;1.57;;;1.10;;
13933;SDS011;7039;52.168;9.866;2023-04-01T13:52:24;2.77;;;1.03;;
13933;SDS011;7039;52.168;9.866;2023-04-01T13:55:23;2.27;;;1.30;;
13933;SDS011;7039;52.168;9.866;2023-04-01T13:58:03;2.43;;;1.50;;
13933;SDS011;7039;52.168;9.866;2023-04-01T14:01:04;3.13;;;1.70;;
13933;SDS011;7039;52.168;9.866;2023-04-01T14:03:45;3.17;;;1.30;;
13933;SDS011;7039;52.168;9.866;2023-04-01T14:22:06;4.17;;;2.30;;
13933;SDS011;7039;52.168;9.866;2023-04-01T14:38:26;8.80;;;7.60;;
13933;SDS011;7039;52.168;9.866;2023-04-01T15:24:43;5.20;;;3.30;;
13933;SDS011;7039;52.168;9.866;2023-04-01T15:27:21;4.23;;;3.80;;
13933;SDS011;7039;52.168;9.866;2023-04-01T15:30:06;3.17;;;2.70;;
13933;SDS011;7039;52.168;9.866;2023-04-01T15:33:10;2.43;;;1.87;;
13933;SDS011;7039;52.168;9.866;2023-04-01T15:36:00;2.80;;;2.60;;
13933;SDS011;7039;52.168;9.866;2023-04-01T15:38:46;2.67;;;2.30;;
13933;SDS011;7039;52.168;9.866;2023-04-01T15:42:04;2.10;;;1.90;;
13933;SDS011;7039;52.168;9.866;2023-04-01T15:44:50;2.70;;;2.27;;
13933;SDS011;7039;52.168;9.866;2023-04-01T15:47:32;2.40;;;2.03;;
13933;SDS011;7039;52.168;9.866;2023-04-01T15:52:57;3.27;;;2.90;;
13933;SDS011;7039;52.168;9.866;2023-04-01T15:55:37;3.63;;;3.20;;
13933;SDS011;7039;52.168;9.866;2023-04-01T15:58:14;3.47;;;3.17;;
13933;SDS011;7039;52.168;9.866;2023-04-01T16:00:55;3.67;;;3.10;;
13933;SDS011;7039;52.168;9.866;2023-04-01T16:03:31;4.83;;;4.30;;
13933;SDS011;7039;52.168;9.866;2023-04-01T16:06:10;3.53;;;3.07;;
13933;SDS011;7039;52.168;9.866;2023-04-01T16:08:47;3.73;;;3.30;;
13933;SDS011;7039;52.168;9.866;2023-04-01T16:11:28;5.90;;;4.77;;
13933;SDS011;7039;52.168;9.866;2023-04-01T16:14:09;5.67;;;4.33;;
13933;SDS011;7039;52.168;9.866;2023-04-01T16:16:53;3.90;;;3.43;;
13933;SDS011;7039;52.168;9.866;2023-04-01T16:22:19;2.80;;;2.50;;
13933;SDS011;7039;52.168;9.866;2023-04-01T16:24:51;3.00;;;2.63;;
13933;SDS011;7039;52.168;9.866;2023-04-01T16:27:24;3.57;;;3.27;;
13933;SDS011;7039;52.168;9.866;2023-04-01T16:29:57;3.83;;;3.43;;
13933;SDS011;7039;52.168;9.866;2023-04-01T16:32:31;3.43;;;2.97;;
13933;SDS011;7039;52.168;9.866;2023-04-01T16:37:59;3.37;;;3.07;;
13933;SDS011;7039;52.168;9.866;2023-04-01T16:40:34;4.20;;;3.37;;
13933;SDS011;7039;52.168;9.866;2023-04-01T16:43:11;3.50;;;3.10;;
13933;SDS011;7039;52.168;9.866;2023-04-01T16:45:45;3.00;;;2.70;;
13933;SDS011;7039;52.168;9.866;2023-04-01T16:48:21;2.10;;;1.90;;
13933;SDS011;7039;52.168;9.866;2023-04-01T16:50:55;2.63;;;2.10;;
13933;SDS011;7039;52.168;9.866;2023-04-01T16:53:30;2.30;;;1.83;;
13933;SDS011;7039;52.168;9.866;2023-04-01T16:56:09;2.20;;;2.00;;
13933;SDS011;7039;52.168;9.866;2023-04-01T16:58:40;2.07;;;1.87;;
13933;SDS011;7039;52.168;9.866;2023-04-01T17:01:12;6.17;;;4.27;;
13933;SDS011;7039;52.168;9.866;2023-04-01T17:03:43;2.13;;;1.93;;
13933;SDS011;7039;52.168;9.866;2023-04-01T17:06:12;2.37;;;2.17;;
13933;SDS011;7039;52.168;9.866;2023-04-01T17:08:56;5.87;;;1.97;;
13933;SDS011;7039;52.168;9.866;2023-04-01T17:11:47;2.40;;;2.20;;
13933;SDS011;7039;52.168;9.866;2023-04-01T17:14:22;3.00;;;2.30;;
13933;SDS011;7039;52.168;9.866;2023-04-01T17:17:05;2.57;;;2.37;;
13933;SDS011;7039;52.168;9.866;2023-04-01T17:19:54;3.50;;;2.50;;
13933;SDS011;7039;52.168;9.866;2023-04-01T17:22:31;3.40;;;3.10;;
13933;SDS011;7039;52.168;9.866;2023-04-01T17:28:14;3.40;;;3.10;;
13933;SDS011;7039;52.168;9.866;2023-04-01T17:30:52;2.33;;;2.13;;
13933;SDS011;7039;52.168;9.866;2023-04-01T17:33:37;2.63;;;2.10;;
13933;SDS011;7039;52.168;9.866;2023-04-01T17:36:21;2.60;;;2.40;;
13933;SDS011;7039;52.168;9.866;2023-04-01T17:39:09;2.43;;;2.10;;
13933;SDS011;7039;52.168;9.866;2023-04-01T17:41:47;2.87;;;2.27;;
13933;SDS011;7039;52.168;9.866;2023-04-01T17:44:21;1.77;;;1.67;;
13933;SDS011;7039;52.168;9.866;2023-04-01T17:47:03;1.80;;;1.47;;
13933;SDS011;7039;52.168;9.866;2023-04-01T17:49:39;1.60;;;1.50;;
13933;SDS011;7039;52.168;9.866;2023-04-01T17:52:15;1.83;;;1.73;;
13933;SDS011;7039;52.168;9.866;2023-04-01T17:54:49;2.53;;;1.77;;
13933;SDS011;7039;52.168;9.866;2023-04-01T17:57:28;3.13;;;2.23;;
13933;SDS011;7039;52.168;9.866;2023-04-01T18:00:14;2.17;;;1.97;;
13933;SDS011;7039;52.168;9.866;2023-04-01T18:02:46;2.30;;;2.10;;
13933;SDS011;7039;52.168;9.866;2023-04-01T18:05:26;3.67;;;1.87;;
13933;SDS011;7039;52.168;9.866;2023-04-01T18:08:06;2.10;;;1.90;;
13933;SDS011;7039;52.168;9.866;2023-04-01T18:10:42;2.60;;;2.20;;
13933;SDS011;7039;52.168;9.866;2023-04-01T18:13:29;2.53;;;2.30;;
13933;SDS011;7039;52.168;9.866;2023-04-01T18:19:09;3.03;;;2.50;;
13933;SDS011;7039;52.168;9.866;2023-04-01T18:21:46;3.40;;;2.37;;
13933;SDS011;7039;52.168;9.866;2023-04-01T18:24:19;2.83;;;2.47;;
13933;SDS011;7039;52.168;9.866;2023-04-01T18:26:51;3.20;;;2.60;;
13933;SDS011;7039;52.168;9.866;2023-04-01T18:29:32;6.37;;;3.50;;
13933;SDS011;7039;52.168;9.866;2023-04-01T18:32:11;9.03;;;3.97;;
13933;SDS011;7039;52.168;9.866;2023-04-01T18:34:50;7.43;;;4.20;;
13933;SDS011;7039;52.168;9.866;2023-04-01T18:37:25;9.23;;;4.20;;
13933;SDS011;7039;52.168;9.866;2023-04-01T18:39:57;11.80;;;6.07;;
13933;SDS011;7039;52.168;9.866;2023-04-01T18:42:33;9.07;;;3.87;;
13933;SDS011;7039;52.168;9.866;2023-04-01T18:45:14;6.33;;;4.20;;
13933;SDS011;7039;52.168;9.866;2023-04-01T18:47:48;9.13;;;4.67;;
13933;SDS011;7039;52.168;9.866;2023-04-01T18:50:26;15.13;;;7.37;;
13933;SDS011;7039;52.168;9.866;2023-04-01T18:52:58;15.20;;;6.70;;
13933;SDS011;7039;52.168;9.866;2023-04-01T18:55:37;11.03;;;5.67;;
13933;SDS011;7039;52.168;9.866;2023-04-01T18:58:18;3.70;;;3.03;;
13933;SDS011;7039;52.168;9.866;2023-04-01T19:00:52;3.73;;;3.10;;
13933;SDS011;7039;52.168;9.866;2023-04-01T19:03:31;3.23;;;2.67;;
13933;SDS011;7039;52.168;9.866;2023-04-01T19:06:08;3.57;;;2.73;;
13933;SDS011;7039;52.168;9.866;2023-04-01T19:08:44;2.73;;;2.40;;
13933;SDS011;7039;52.168;9.866;2023-04-01T19:11:13;2.70;;;2.40;;
13933;SDS011;7039;52.168;9.866;2023-04-01T19:13:52;4.27;;;3.03;;
13933;SDS011;7039;52.168;9.866;2023-04-01T19:16:33;5.10;;;2.90;;
13933;SDS011;7039;52.168;9.866;2023-04-01T19:19:14;3.93;;;2.40;;
13933;SDS011;7039;52.168;9.866;2023-04-01T19:21:53;6.07;;;3.60;;
13933;SDS011;7039;52.168;9.866;2023-04-01T19:24:39;3.90;;;3.40;;
13933;SDS011;7039;52.168;9.866;2023-04-01T19:27:19;2.73;;;2.50;;
13933;SDS011;7039;52.168;9.866;2023-04-01T19:30:00;1.90;;;1.70;;
13933;SDS011;7039;52.168;9.866;2023-04-01T19:32:40;2.93;;;1.60;;
13933;SDS011;7039;52.168;9.866;2023-04-01T19:35:19;1.90;;;1.80;;
13933;SDS011;7039;52.168;9.866;2023-04-01T19:37:54;2.10;;;1.77;;
13933;SDS011;7039;52.168;9.866;2023-04-01T19:40:33;2.13;;;1.90;;
13933;SDS011;7039;52.168;9.866;2023-04-01T19:43:08;2.90;;;1.83;;
13933;SDS011;7039;52.168;9.866;2023-04-01T19:45:44;3.67;;;1.90;;
13933;SDS011;7039;52.168;9.866;2023-04-01T19:48:24;2.33;;;1.90;;
13933;SDS011;7039;52.168;9.866;2023-04-01T19:51:05;2.30;;;1.93;;
13933;SDS011;7039;52.168;9.866;2023-04-01T19:53:36;1.97;;;1.63;;
13933;SDS011;7039;52.168;9.866;2023-04-01T19:56:12;1.70;;;1.60;;
13933;SDS011;7039;52.168;9.866;2023-04-01T19:58:43;2.40;;;1.90;;
13933;SDS011;7039;52.168;9.866;2023-04-01T20:01:17;2.40;;;2.07;;
13933;SDS011;7039;52.168;9.866;2023-04-01T20:03:49;2.80;;;2.03;;
13933;SDS011;7039;52.168;9.866;2023-04-01T20:06:22;2.07;;;1.60;;
13933;SDS011;7039;52.168;9.866;2023-04-01T20:08:58;1.70;;;1.60;;
13933;SDS011;7039;52.168;9.866;2023-04-01T20:11:41;2.03;;;1.83;;
13933;SDS011;7039;52.168;9.866;2023-04-01T20:14:17;2.07;;;1.83;;
13933;SDS011;7039;52.168;9.866;2023-04-01T20:16:55;2.90;;;1.93;;
13933;SDS011;7039;52.168;9.866;2023-04-01T20:19:28;3.93;;;1.90;;
13933;SDS011;7039;52.168;9.866;2023-04-01T20:22:01;3.10;;;2.43;;
13933;SDS011;7039;52.168;9.866;2023-04-01T20:24:32;2.50;;;2.00;;
13933;SDS011;7039;52.168;9.866;2023-04-01T20:27:05;3.50;;;1.70;;
13933;SDS011;7039;52.168;9.866;2023-04-01T20:29:37;2.20;;;1.80;;
13933;SDS011;7039;52.168;9.866;2023-04-01T20:32:13;4.10;;;2.90;;
13933;SDS011;7039;52.168;9.866;2023-04-01T20:35:06;3.97;;;2.30;;
13933;SDS011;7039;52.168;9.866;2023-04-01T20:37:49;3.03;;;2.20;;
13933;SDS011;7039;52.168;9.866;2023-04-01T20:40:26;2.40;;;2.00;;
13933;SDS011;7039;52.168;9.866;2023-04-01T20:46:06;3.27;;;2.40;;
13933;SDS011;7039;52.168;9.866;2023-04-01T20:48:40;2.77;;;2.37;;
13933;SDS011;7039;52.168;9.866;2023-04-01T20:51:24;3.60;;;2.90;;
13933;SDS011;7039;52.168;9.866;2023-04-01T20:53:56;3.37;;;2.80;;
13933;SDS011;7039;52.168;9.866;2023-04-01T20:56:36;3.57;;;2.40;;
13933;SDS011;7039;52.168;9.866;2023-04-01T20:59:16;3.90;;;2.70;;
13933;SDS011;7039;52.168;9.866;2023-04-01T21:01:58;4.87;;;2.67;;
13933;SDS011;7039;52.168;9.866;2023-04-01T21:04:36;5.03;;;2.73;;
13933;SDS011;7039;52.168;9.866;2023-04-01T21:07:13;6.30;;;3.10;;
13933;SDS011;7039;52.168;9.866;2023-04-01T21:09:51;4.30;;;2.97;;
13933;SDS011;7039;52.168;9.866;2023-04-01T21:12:30;3.30;;;2.90;;
13933;SDS011;7039;52.168;9.866;2023-04-01T21:15:10;2.97;;;2.37;;
13933;SDS011;7039;52.168;9.866;2023-04-01T21:17:51;4.30;;;2.27;;
13933;SDS011;7039;52.168;9.866;2023-04-01T21:20:33;2.70;;;2.30;;
13933;SDS011;7039;52.168;9.866;2023-04-01T21:26:20;5.40;;;2.33;;
13933;SDS011;7039;52.168;9.866;2023-04-01T21:29:04;3.43;;;2.90;;
13933;SDS011;7039;52.168;9.866;2023-04-01T21:31:47;3.40;;;2.40;;
13933;SDS011;7039;52.168;9.866;2023-04-01T21:34:37;4.13;;;3.00;;
13933;SDS011;7039;52.168;9.866;2023-04-01T21:37:13;4.00;;;2.77;;
13933;SDS011;7039;52.168;9.866;2023-04-01T21:40:01;4.43;;;2.90;;
13933;SDS011;7039;52.168;9.866;2023-04-01T21:42:41;3.10;;;2.53;;
13933;SDS011;7039;52.168;9.866;2023-04-01T21:45:19;3.13;;;2.30;;
13933;SDS011;7039;52.168;9.866;2023-04-01T21:51:31;3.70;;;2.83;;
13933;SDS011;7039;52.168;9.866;2023-04-01T21:54:17;5.90;;;2.70;;
13933;SDS011;7039;52.168;9.866;2023-04-01T21:57:33;6.37;;;2.80;;
13933;SDS011;7039;52.168;9.866;2023-04-01T22:00:17;2.93;;;2.17;;
13933;SDS011;7039;52.168;9.866;2023-04-01T22:03:03;5.33;;;2.50;;
13933;SDS011;7039;52.168;9.866;2023-04-01T22:06:03;4.03;;;2.50;;
13933;SDS011;7039;52.168;9.866;2023-04-01T22:11:38;4.43;;;2.90;;
13933;SDS011;7039;52.168;9.866;2023-04-01T22:14:15;5.73;;;3.60;;
13933;SDS011;7039;52.168;9.866;2023-04-01T22:16:50;4.73;;;3.30;;
13933;SDS011;7039;52.168;9.866;2023-04-01T22:19:23;6.53;;;3.20;;
13933;SDS011;7039;52.168;9.866;2023-04-01T22:21:56;6.13;;;3.40;;
13933;SDS011;7039;52.168;9.866;2023-04-01T22:24:31;6.97;;;3.13;;
13933;SDS011;7039;52.168;9.866;2023-04-01T22:27:07;4.47;;;3.13;;
13933;SDS011;7039;52.168;9.866;2023-04-01T22:29:45;6.90;;;3.37;;
13933;SDS011;7039;52.168;9.866;2023-04-01T22:32:20;6.80;;;3.20;;
13933;SDS011;7039;52.168;9.866;2023-04-01T22:34:55;6.07;;;3.10;;
13933;SDS011;7039;52.168;9.866;2023-04-01T22:37:29;4.30;;;3.30;;
13933;SDS011;7039;52.168;9.866;2023-04-01T22:40:11;4.00;;;2.80;;
13933;SDS011;7039;52.168;9.866;2023-04-01T22:42:46;3.77;;;3.07;;
13933;SDS011;7039;52.168;9.866;2023-04-01T22:45:24;3.90;;;2.80;;
13933;SDS011;7039;52.168;9.866;2023-04-01T22:48:09;4.80;;;3.00;;
13933;SDS011;7039;52.168;9.866;2023-04-01T22:50:43;3.67;;;2.83;;
13933;SDS011;7039;52.168;9.866;2023-04-01T22:53:17;5.43;;;3.40;;
13933;SDS011;7039;52.168;9.866;2023-04-01T22:55:59;4.90;;;3.40;;
13933;SDS011;7039;52.168;9.866;2023-04-01T22:58:30;5.03;;;3.30;;
13933;SDS011;7039;52.168;9.866;2023-04-01T23:01:01;5.27;;;3.50;;
13933;SDS011;7039;52.168;9.866;2023-04-01T23:03:32;5.30;;;3.40;;
13933;SDS011;7039;52.168;9.866;2023-04-01T23:06:04;4.47;;;3.30;;
13933;SDS011;7039;52.168;9.866;2023-04-01T23:08:44;5.53;;;3.70;;
13933;SDS011;7039;52.168;9.866;2023-04-01T23:11:27;5.73;;;3.47;;
13933;SDS011;7039;52.168;9.866;2023-04-01T23:14:01;4.00;;;3.47;;
13933;SDS011;7039;52.168;9.866;2023-04-01T23:16:43;4.20;;;3.47;;
13933;SDS011;7039;52.168;9.866;2023-04-01T23:19:19;7.20;;;3.50;;
13933;SDS011;7039;52.168;9.866;2023-04-01T23:21:51;6.67;;;3.57;;
13933;SDS011;7039;52.168;9.866;2023-04-01T23:24:29;5.67;;;3.60;;
13933;SDS011;7039;52.168;9.866;2023-04-01T23:27:02;6.27;;;3.80;;
13933;SDS011;7039;52.168;9.866;2023-04-01T23:29:33;6.07;;;4.30;;
13933;SDS011;7039;52.168;9.866;2023-04-01T23:32:03;7.07;;;3.60;;
13933;SDS011;7039;52.168;9.866;2023-04-01T23:34:30;6.23;;;4.23;;
13933;SDS011;7039;52.168;9.866;2023-04-01T23:37:00;5.10;;;3.77;;
13933;SDS011;7039;52.168;9.866;2023-04-01T23:39:31;5.57;;;3.83;;
13933;SDS011;7039;52.168;9.866;2023-04-01T23:42:03;7.17;;;4.63;;
13933;SDS011;7039;52.168;9.866;2023-04-01T23:44:31;7.33;;;4.27;;
13933;SDS011;7039;52.168;9.866;2023-04-01T23:46:59;8.67;;;4.10;;
13933;SDS011;7039;52.168;9.866;2023-04-01T23:49:30;8.63;;;4.13;;
13933;SDS011;7039;52.168;9.866;2023-04-01T23:52:03;8.07;;;4.27;;
13933;SDS011;7039;52.168;9.866;2023-04-01T23:54:39;5.73;;;4.10;;
13933;SDS011;7039;52.168;9.866;2023-04-01T23:57:12;10.00;;;4.00;;
13933;SDS011;7039;52.168;9.866;2023-04-01T23:59:41;15.67;;;4.30;;
